Appomattox, Virginia
Current Conditions -  °F | °C
As of 4:55 AM on Wednesday 26 Nov 2014 (Local Time) from K0V4 Reporting Station
Overcast Overcast  
Wind Chill:   Ceiling: 1100
Heat Index:   Visibility: 5mi
Dew Point:   Wind: 5mph
Humidity: 99%   Direction: 350°N
Pressure: 30.02"   Gusts: NA
Location:  37.36°N, 78.83°W
Report Text: K0V4 260955Z AUTO 35004KT 5SM BKN011 OVC017 08/07 A3002 RMK AO1 P0007 T00750073
Loading
Personal Weather Stations






























Interactive Weather Map New forecast layout! Learn more

10-Day Weather Forecast

Advertisements
Track Severe Weather on mobile